createdAt,value
2023-03-19T00:04:54.184Z,23.77
2023-03-19T00:09:55.598Z,23.90
2023-03-19T00:14:56.985Z,23.77
2023-03-19T00:19:58.370Z,23.72
2023-03-19T00:24:59.805Z,23.97
2023-03-19T00:30:02.432Z,23.94
2023-03-19T00:35:06.198Z,23.83
2023-03-19T00:40:08.396Z,23.88
2023-03-19T00:45:10.697Z,24.03
2023-03-19T00:50:12.231Z,23.83
2023-03-19T00:55:14.018Z,24.00
2023-03-19T01:00:18.883Z,23.79
2023-03-19T01:05:20.264Z,23.75
2023-03-19T01:10:22.594Z,23.92
2023-03-19T01:15:24.002Z,24.04
2023-03-19T01:20:25.387Z,24.01
2023-03-19T01:25:26.935Z,23.95
2023-03-19T01:30:28.367Z,23.83
2023-03-19T01:35:30.120Z,23.68
2023-03-19T01:40:32.753Z,23.89
2023-03-19T01:45:36.339Z,23.88
2023-03-19T01:50:41.881Z,23.95
2023-03-19T01:55:43.282Z,23.86
2023-03-19T02:00:44.721Z,23.83
2023-03-19T02:05:46.431Z,23.84
2023-03-19T02:10:48.094Z,23.67
2023-03-19T02:15:50.803Z,23.96
2023-03-19T02:20:59.296Z,23.66
2023-03-19T02:26:02.488Z,23.55
2023-03-19T02:31:03.918Z,23.54
2023-03-19T02:36:06.967Z,23.62
2023-03-19T02:41:08.485Z,23.81
2023-03-19T02:46:12.037Z,23.66
2023-03-19T02:51:13.560Z,23.61
2023-03-19T02:56:15.258Z,23.59
2023-03-19T03:01:17.561Z,23.61
2023-03-19T03:06:19.023Z,23.78
2023-03-19T03:11:20.398Z,23.84
2023-03-19T03:16:22.629Z,23.70
2023-03-19T03:21:24.072Z,23.71
2023-03-19T03:26:25.512Z,23.73
2023-03-19T03:31:27.004Z,23.64
2023-03-19T03:36:28.718Z,23.93
2023-03-19T03:41:30.204Z,23.69
2023-03-19T03:46:31.605Z,23.68
2023-03-19T03:51:33.007Z,23.67
2023-03-19T03:56:34.467Z,23.84
2023-03-19T04:01:36.131Z,23.38
2023-03-19T04:06:37.500Z,23.42
2023-03-19T04:11:39.505Z,23.25
2023-03-19T04:16:41.194Z,23.50
2023-03-19T04:21:42.772Z,23.41
2023-03-19T04:26:44.232Z,23.52
2023-03-19T04:31:45.780Z,23.19
2023-03-19T04:36:47.228Z,23.08
2023-03-19T04:41:48.982Z,23.25
2023-03-19T04:46:50.465Z,23.25
2023-03-19T04:51:51.830Z,23.31
2023-03-19T04:56:53.529Z,22.99
2023-03-19T05:01:54.934Z,22.99
2023-03-19T05:06:57.255Z,23.22
2023-03-19T05:11:58.641Z,23.26
2023-03-19T05:17:00.499Z,23.20
2023-03-19T05:22:01.889Z,23.02
2023-03-19T05:27:03.374Z,23.04
2023-03-19T05:32:05.057Z,23.05
2023-03-19T05:37:06.440Z,22.96
2023-03-19T05:42:07.845Z,23.09
2023-03-19T05:47:10.785Z,22.91
2023-03-19T05:52:12.267Z,22.99
2023-03-19T05:57:14.071Z,22.66
2023-03-19T06:02:15.787Z,22.90
2023-03-19T06:07:17.184Z,23.04
2023-03-19T06:12:18.638Z,23.05
2023-03-19T06:17:21.255Z,22.92
2023-03-19T06:22:22.642Z,22.94
2023-03-19T06:27:24.038Z,23.00
2023-03-19T06:32:25.583Z,23.06
2023-03-19T06:37:26.953Z,22.61
2023-03-19T06:42:28.352Z,22.74
2023-03-19T06:47:29.765Z,22.98
2023-03-19T06:52:31.225Z,22.97
2023-03-19T06:57:32.650Z,22.85
2023-03-19T07:02:34.083Z,22.91
2023-03-19T07:07:35.683Z,22.83
2023-03-19T07:12:37.267Z,22.85
2023-03-19T07:17:38.653Z,22.72
2023-03-19T07:22:40.342Z,23.15
2023-03-19T07:27:41.761Z,23.14
2023-03-19T07:32:43.791Z,23.04
2023-03-19T07:37:45.274Z,22.88
2023-03-19T07:42:46.683Z,23.10
2023-03-19T07:47:50.447Z,23.09
2023-03-19T07:52:51.939Z,23.03
2023-03-19T07:57:53.330Z,22.80
2023-03-19T08:02:54.728Z,22.40
2023-03-19T08:07:56.131Z,22.76
2023-03-19T08:12:57.603Z,22.70
2023-03-19T08:18:03.642Z,22.71
2023-03-19T08:23:05.086Z,22.89
2023-03-19T08:28:07.075Z,22.67
2023-03-19T08:33:08.704Z,22.57
2023-03-19T08:38:10.994Z,22.66
2023-03-19T08:43:12.399Z,23.00
2023-03-19T08:48:13.791Z,22.83
2023-03-19T08:53:15.361Z,22.85
2023-03-19T08:58:16.754Z,22.87
2023-03-19T09:03:18.175Z,22.96
2023-03-19T09:08:19.559Z,22.97
2023-03-19T09:13:21.008Z,23.18
2023-03-19T09:18:25.255Z,22.98
2023-03-19T09:23:26.707Z,22.99
2023-03-19T09:28:28.129Z,23.06
2023-03-19T09:33:29.508Z,23.14
2023-03-19T09:38:31.085Z,23.42
2023-03-19T09:43:59.284Z,23.40
2023-03-19T09:49:22.356Z,23.52
2023-03-19T09:54:36.497Z,23.40
2023-03-19T09:59:37.894Z,23.34
2023-03-19T10:04:42.539Z,23.39
2023-03-19T10:09:46.650Z,23.52
2023-03-19T10:15:04.251Z,23.48
2023-03-19T10:20:45.193Z,23.49
2023-03-19T10:25:46.694Z,23.83
2023-03-19T10:30:57.740Z,23.38
2023-03-19T10:36:05.577Z,23.80
2023-03-19T10:41:28.206Z,23.84
2023-03-19T10:46:39.371Z,23.96
2023-03-19T10:51:43.683Z,23.95
2023-03-19T10:56:46.118Z,24.00
2023-03-19T11:01:47.506Z,24.02
2023-03-19T11:06:50.054Z,24.04
2023-03-19T11:11:53.962Z,24.31
2023-03-19T11:16:57.346Z,24.28
2023-03-19T11:22:05.341Z,24.20
2023-03-19T11:27:07.448Z,24.38
2023-03-19T11:32:22.058Z,24.43
2023-03-19T11:37:54.817Z,24.53
2023-03-19T11:43:25.369Z,24.81
2023-03-19T11:48:32.435Z,24.78
2023-03-19T11:54:11.639Z,24.84
2023-03-19T11:59:28.426Z,24.76
2023-03-19T12:04:54.015Z,24.87
2023-03-19T12:09:57.107Z,24.91
2023-03-19T12:15:23.438Z,25.14
2023-03-19T12:21:15.513Z,25.04
2023-03-19T12:26:40.323Z,25.30
2023-03-19T12:31:51.304Z,25.20
2023-03-19T12:37:06.947Z,25.13
2023-03-19T12:42:08.378Z,25.45
2023-03-19T12:47:13.026Z,25.30
2023-03-19T12:52:26.607Z,25.46
2023-03-19T12:57:37.934Z,25.47
2023-03-19T13:02:50.264Z,25.30
2023-03-19T13:08:11.839Z,25.62
2023-03-19T13:13:28.596Z,25.39
2023-03-19T13:18:44.199Z,25.72
2023-03-19T13:23:45.637Z,25.68
2023-03-19T13:29:01.448Z,25.83
2023-03-19T13:34:05.047Z,26.04
2023-03-19T13:39:13.270Z,25.95
2023-03-19T13:44:40.648Z,26.19
2023-03-19T13:50:05.505Z,26.16
2023-03-19T13:55:25.484Z,26.30
2023-03-19T14:00:47.024Z,26.56
2023-03-19T14:05:48.803Z,26.30
2023-03-19T14:10:57.872Z,26.30
2023-03-19T14:16:15.960Z,26.66
2023-03-19T14:21:38.785Z,26.68
2023-03-19T14:26:41.973Z,27.03
2023-03-19T14:31:53.815Z,26.78
2023-03-19T14:37:17.207Z,27.06
2023-03-19T14:42:50.257Z,27.02
2023-03-19T14:48:22.953Z,27.28
2023-03-19T14:53:27.231Z,27.20
2023-03-19T14:58:28.610Z,27.17
2023-03-19T15:03:39.346Z,27.43
2023-03-19T15:08:40.790Z,27.37
2023-03-19T15:13:58.475Z,27.24
2023-03-19T15:18:59.869Z,27.43
2023-03-19T15:24:01.251Z,27.82
2023-03-19T15:29:04.231Z,28.03
2023-03-19T15:34:22.573Z,28.18
2023-03-19T15:39:24.868Z,28.56
2023-03-19T15:44:31.503Z,29.53
2023-03-19T15:49:36.472Z,30.39
2023-03-19T15:54:37.880Z,30.72
2023-03-19T15:59:39.280Z,30.97
2023-03-19T16:05:06.714Z,31.70
2023-03-19T16:10:40.141Z,32.47
2023-03-19T16:15:45.718Z,32.65
2023-03-19T16:21:09.208Z,33.45
2023-03-19T16:26:19.277Z,33.71
2023-03-19T16:31:22.808Z,33.58
2023-03-19T16:36:26.785Z,33.79
2023-03-19T16:41:34.063Z,34.14
2023-03-19T16:46:35.475Z,34.53
2023-03-19T16:51:36.896Z,35.00
2023-03-19T16:56:38.305Z,34.97
2023-03-19T17:01:39.727Z,35.27
2023-03-19T17:06:41.115Z,35.51
2023-03-19T17:11:42.830Z,35.31
2023-03-19T17:16:48.336Z,35.38
2023-03-19T17:21:52.295Z,35.77
2023-03-19T17:26:54.008Z,35.78
2023-03-19T17:31:55.832Z,36.21
2023-03-19T17:36:59.339Z,35.97
2023-03-19T17:42:00.794Z,35.96
2023-03-19T17:47:02.210Z,35.95
2023-03-19T17:52:03.684Z,35.79
2023-03-19T17:57:05.229Z,36.11
2023-03-19T18:02:27.420Z,36.43
2023-03-19T18:07:28.801Z,36.46
2023-03-19T18:12:30.246Z,36.53
2023-03-19T18:17:31.662Z,36.64
2023-03-19T18:22:33.054Z,36.88
2023-03-19T18:27:34.552Z,37.38
2023-03-19T18:32:36.048Z,37.63
2023-03-19T18:37:37.462Z,37.57
2023-03-19T18:42:38.837Z,37.69
2023-03-19T18:47:40.679Z,37.59
2023-03-19T18:52:42.563Z,37.64
2023-03-19T18:57:53.463Z,37.99
2023-03-19T19:02:55.459Z,38.03
2023-03-19T19:07:57.646Z,37.88
2023-03-19T19:12:59.045Z,37.75
2023-03-19T19:18:00.678Z,37.72
2023-03-19T19:23:02.561Z,37.66
2023-03-19T19:28:14.380Z,37.79
2023-03-19T19:33:19.616Z,37.72
2023-03-19T19:38:21.011Z,37.96
2023-03-19T19:43:24.141Z,37.82
2023-03-19T19:48:27.257Z,37.67
2023-03-19T19:53:29.580Z,37.83
2023-03-19T19:58:31.885Z,37.73
2023-03-19T20:03:33.489Z,37.84
2023-03-19T20:08:35.141Z,37.91
2023-03-19T20:13:37.643Z,37.82
2023-03-19T20:18:43.284Z,37.78
2023-03-19T20:23:44.870Z,37.83
2023-03-19T20:28:46.356Z,37.99
2023-03-19T20:33:47.727Z,38.47
2023-03-19T20:38:49.176Z,38.05
2023-03-19T20:43:50.758Z,38.03
2023-03-19T20:48:52.176Z,38.11
2023-03-19T20:53:53.607Z,38.54
2023-03-19T20:58:55.142Z,38.41
2023-03-19T21:03:57.044Z,38.39
2023-03-19T21:09:00.176Z,38.43
2023-03-19T21:14:01.877Z,38.41
2023-03-19T21:19:03.322Z,38.03
2023-03-19T21:24:15.410Z,38.07
2023-03-19T21:29:22.891Z,38.36
2023-03-19T21:34:24.298Z,38.35
2023-03-19T21:39:25.681Z,38.16
2023-03-19T21:44:29.507Z,37.80
2023-03-19T21:49:31.050Z,37.81
2023-03-19T21:54:32.439Z,37.91
2023-03-19T21:59:33.871Z,37.68
2023-03-19T22:04:35.314Z,37.84
2023-03-19T22:09:37.216Z,37.70
2023-03-19T22:14:40.059Z,37.67
2023-03-19T22:19:41.923Z,37.47
2023-03-19T22:24:43.356Z,37.55
2023-03-19T22:29:45.060Z,37.38
2023-03-19T22:34:46.431Z,37.62
2023-03-19T22:39:47.806Z,37.44
2023-03-19T22:44:49.192Z,37.15
2023-03-19T22:49:50.996Z,37.41
2023-03-19T22:54:53.586Z,37.12
2023-03-19T22:59:54.981Z,37.36
2023-03-19T23:04:56.349Z,37.15
2023-03-19T23:09:57.726Z,37.05
2023-03-19T23:14:59.095Z,37.32
2023-03-19T23:20:01.013Z,37.13
2023-03-19T23:25:02.457Z,37.34
2023-03-19T23:30:04.613Z,37.24
2023-03-19T23:35:15.519Z,37.40
2023-03-19T23:40:17.817Z,36.89
2023-03-19T23:45:31.266Z,36.94
2023-03-19T23:50:32.856Z,36.74
2023-03-19T23:55:34.528Z,36.42
